createdAt,value
2017-12-26T00:02:22.879Z,94.16
2017-12-26T00:04:50.466Z,94.27
2017-12-26T00:07:18.011Z,94.39
2017-12-26T00:09:45.643Z,94.63
2017-12-26T00:12:13.222Z,94.16
2017-12-26T00:14:40.781Z,94.38
2017-12-26T00:17:08.399Z,94.10
2017-12-26T00:19:35.963Z,93.89
2017-12-26T00:22:03.627Z,93.93
2017-12-26T00:24:31.247Z,93.81
2017-12-26T00:26:58.821Z,93.86
2017-12-26T00:29:26.391Z,94.27
2017-12-26T00:31:54.037Z,94.21
2017-12-26T00:34:21.636Z,93.73
2017-12-26T00:36:49.223Z,93.55
2017-12-26T00:39:16.815Z,93.63
2017-12-26T00:41:44.395Z,93.44
2017-12-26T00:44:11.960Z,93.39
2017-12-26T00:46:39.559Z,93.41
2017-12-26T00:49:07.124Z,93.38
2017-12-26T00:51:34.713Z,93.54
2017-12-26T00:54:02.338Z,93.42
2017-12-26T00:56:29.976Z,93.85
2017-12-26T00:58:57.588Z,94.16
2017-12-26T01:01:25.202Z,94.33
2017-12-26T01:03:52.863Z,94.54
2017-12-26T01:06:20.476Z,94.31
2017-12-26T01:08:48.065Z,94.14
2017-12-26T01:11:15.694Z,94.11
2017-12-26T01:13:43.294Z,93.99
2017-12-26T01:16:10.859Z,94.25
2017-12-26T01:18:38.478Z,94.19
2017-12-26T01:21:06.053Z,94.18
2017-12-26T01:23:33.629Z,94.07
2017-12-26T01:26:01.231Z,94.05
2017-12-26T01:28:28.800Z,93.99
2017-12-26T01:30:56.411Z,94.11
2017-12-26T01:33:24.540Z,94.19
2017-12-26T01:35:52.130Z,94.19
2017-12-26T01:38:19.706Z,94.27
2017-12-26T01:40:47.346Z,94.35
2017-12-26T01:43:14.960Z,94.37
2017-12-26T01:45:42.534Z,94.21
2017-12-26T01:48:10.372Z,94.16
2017-12-26T01:50:37.959Z,94.33
2017-12-26T01:53:05.574Z,94.02
2017-12-26T01:55:33.205Z,94.29
2017-12-26T01:58:00.790Z,94.12
2017-12-26T02:00:28.391Z,94.25
2017-12-26T02:02:55.994Z,94.16
2017-12-26T02:05:24.498Z,94.12
2017-12-26T02:07:52.201Z,94.50
2017-12-26T02:10:19.828Z,94.46
2017-12-26T02:12:47.408Z,94.58
2017-12-26T02:15:15.066Z,94.53
2017-12-26T02:17:42.700Z,94.37
2017-12-26T02:20:10.410Z,94.33
2017-12-26T02:22:37.994Z,94.31
2017-12-26T02:25:05.614Z,94.23
2017-12-26T02:27:33.200Z,94.33
2017-12-26T02:30:00.792Z,94.38
2017-12-26T02:32:28.419Z,94.31
2017-12-26T02:34:56.006Z,94.47
2017-12-26T02:37:23.602Z,94.40
2017-12-26T02:39:51.198Z,94.11
2017-12-26T02:42:18.771Z,93.97
2017-12-26T02:44:46.342Z,94.16
2017-12-26T02:47:13.969Z,94.38
2017-12-26T02:49:41.541Z,94.19
2017-12-26T02:52:09.145Z,93.95
2017-12-26T02:54:36.791Z,93.96
2017-12-26T02:57:04.356Z,94.02
2017-12-26T02:59:31.926Z,94.06
2017-12-26T03:01:59.538Z,93.92
2017-12-26T03:04:27.099Z,93.75
2017-12-26T03:06:54.666Z,93.71
2017-12-26T03:09:22.286Z,93.58
2017-12-26T03:11:49.865Z,93.67
2017-12-26T03:14:17.435Z,93.92
2017-12-26T03:16:45.066Z,93.92
2017-12-26T03:19:12.645Z,94.16
2017-12-26T03:21:40.216Z,94.22
2017-12-26T03:24:07.867Z,93.93
2017-12-26T03:26:35.450Z,93.67
2017-12-26T03:29:03.037Z,93.51
2017-12-26T03:31:30.658Z,93.56
2017-12-26T03:33:58.230Z,93.53
2017-12-26T03:36:25.971Z,93.55
2017-12-26T03:38:53.601Z,93.59
2017-12-26T03:41:21.212Z,93.69
2017-12-26T03:43:48.809Z,93.90
2017-12-26T03:46:16.463Z,93.64
2017-12-26T03:48:44.053Z,93.61
2017-12-26T03:51:11.630Z,93.70
2017-12-26T03:53:39.247Z,93.79
2017-12-26T03:56:06.853Z,93.79
2017-12-26T03:58:34.443Z,93.81
2017-12-26T04:01:02.084Z,93.71
2017-12-26T04:03:29.699Z,93.85
2017-12-26T04:05:57.317Z,93.73
2017-12-26T04:08:24.982Z,93.75
2017-12-26T04:10:52.576Z,93.98
2017-12-26T04:13:20.168Z,94.04
2017-12-26T04:15:47.786Z,93.97
2017-12-26T04:18:15.402Z,93.62
2017-12-26T04:20:42.974Z,93.67
2017-12-26T04:23:10.581Z,93.86
2017-12-26T04:25:38.161Z,93.78
2017-12-26T04:28:05.760Z,93.81
2017-12-26T04:30:33.374Z,93.89
2017-12-26T04:33:00.948Z,94.07
2017-12-26T04:35:28.537Z,93.95
2017-12-26T04:37:56.182Z,93.99
2017-12-26T04:40:23.774Z,93.83
2017-12-26T04:42:51.349Z,93.73
2017-12-26T04:45:18.970Z,93.60
2017-12-26T04:47:46.559Z,93.42
2017-12-26T04:50:14.132Z,93.61
2017-12-26T04:52:41.763Z,93.58
2017-12-26T04:55:09.353Z,93.72
2017-12-26T04:57:36.996Z,93.69
2017-12-26T05:00:04.619Z,93.40
2017-12-26T05:02:32.332Z,93.66
2017-12-26T05:04:59.902Z,93.75
2017-12-26T05:07:27.538Z,93.55
2017-12-26T05:09:55.120Z,94.09
2017-12-26T05:12:22.704Z,94.14
2017-12-26T05:14:50.384Z,94.13
2017-12-26T05:17:17.978Z,94.04
2017-12-26T05:19:45.553Z,94.06
2017-12-26T05:22:13.163Z,94.10
2017-12-26T05:24:40.759Z,93.81
2017-12-26T05:27:08.345Z,93.43
2017-12-26T05:29:35.965Z,93.45
2017-12-26T05:32:03.542Z,93.25
2017-12-26T05:34:31.124Z,93.22
2017-12-26T05:36:58.751Z,93.05
2017-12-26T05:39:26.338Z,92.81
2017-12-26T05:41:53.920Z,92.87
2017-12-26T05:44:21.527Z,92.82
2017-12-26T05:46:49.109Z,92.88
2017-12-26T05:49:16.689Z,92.73
2017-12-26T05:51:44.298Z,92.86
2017-12-26T05:54:11.891Z,92.65
2017-12-26T05:56:39.682Z,92.59
2017-12-26T05:59:07.321Z,92.70
2017-12-26T06:01:34.896Z,92.95
2017-12-26T06:04:02.486Z,93.03
2017-12-26T06:06:30.117Z,92.77
2017-12-26T06:08:57.709Z,92.39
2017-12-26T06:11:25.307Z,92.04
2017-12-26T06:13:53.082Z,92.09
2017-12-26T06:16:20.664Z,91.77
2017-12-26T06:18:48.256Z,91.80
2017-12-26T06:21:15.844Z,91.66
2017-12-26T06:23:43.424Z,91.83
2017-12-26T06:26:10.990Z,91.62
2017-12-26T06:28:38.601Z,91.42
2017-12-26T06:31:06.156Z,91.36
2017-12-26T06:33:33.729Z,91.01
2017-12-26T06:36:01.350Z,90.99
2017-12-26T06:38:28.910Z,91.11
2017-12-26T06:40:56.469Z,91.35
2017-12-26T06:43:24.089Z,91.20
2017-12-26T06:45:51.669Z,92.03
2017-12-26T06:48:19.226Z,89.93
2017-12-26T06:50:46.828Z,86.26
2017-12-26T06:53:14.425Z,78.35
2017-12-26T06:55:41.995Z,69.84
2017-12-26T06:58:09.590Z,67.43
2017-12-26T07:00:37.150Z,63.67
2017-12-26T07:03:04.738Z,62.44
2017-12-26T07:05:32.325Z,58.31
2017-12-26T07:07:59.897Z,56.69
2017-12-26T07:10:27.466Z,54.34
2017-12-26T07:12:55.128Z,53.80
2017-12-26T07:15:22.700Z,52.37
2017-12-26T07:17:50.259Z,52.58
2017-12-26T07:20:23.261Z,52.83
2017-12-26T07:22:50.827Z,51.72
2017-12-26T07:25:18.385Z,53.70
2017-12-26T07:27:46.024Z,49.83
2017-12-26T07:30:13.592Z,53.12
2017-12-26T07:32:41.171Z,53.28
2017-12-26T07:35:08.773Z,53.73
2017-12-26T07:37:36.325Z,52.44
2017-12-26T07:40:03.907Z,50.96
2017-12-26T07:42:31.519Z,50.83
2017-12-26T07:44:59.126Z,50.13
2017-12-26T07:47:26.705Z,49.60
2017-12-26T07:49:54.312Z,51.14
2017-12-26T07:52:21.877Z,48.84
2017-12-26T07:54:49.427Z,49.59
2017-12-26T07:57:17.046Z,48.01
2017-12-26T07:59:44.591Z,47.79
2017-12-26T08:02:12.158Z,44.46
2017-12-26T08:04:39.770Z,46.41
2017-12-26T08:07:07.337Z,45.76
2017-12-26T08:09:34.896Z,44.06
2017-12-26T08:12:02.508Z,44.40
2017-12-26T08:14:30.170Z,45.10
2017-12-26T08:16:57.752Z,44.17
2017-12-26T08:19:25.353Z,44.32
2017-12-26T08:21:52.913Z,44.72
2017-12-26T08:24:20.480Z,42.91
2017-12-26T08:26:48.102Z,41.80
2017-12-26T08:29:15.657Z,42.27
2017-12-26T08:31:43.227Z,43.13
2017-12-26T08:34:10.826Z,42.07
2017-12-26T08:36:38.406Z,39.18
2017-12-26T08:39:05.982Z,40.01
2017-12-26T08:41:33.580Z,39.87
2017-12-26T08:44:01.157Z,40.27
2017-12-26T08:46:28.732Z,39.35
2017-12-26T08:48:56.342Z,38.35
2017-12-26T08:51:23.915Z,37.52
2017-12-26T08:53:51.487Z,38.72
2017-12-26T08:56:19.092Z,37.62
2017-12-26T08:58:46.664Z,36.95
2017-12-26T09:01:14.231Z,37.46
2017-12-26T09:03:41.858Z,36.60
2017-12-26T09:06:09.441Z,36.70
2017-12-26T09:08:37.009Z,35.86
2017-12-26T09:11:04.614Z,35.95
2017-12-26T09:13:32.178Z,35.32
2017-12-26T09:15:59.750Z,35.41
2017-12-26T09:18:27.365Z,34.61
2017-12-26T09:20:54.935Z,36.44
2017-12-26T09:23:22.495Z,35.54
2017-12-26T09:25:50.106Z,36.99
2017-12-26T09:28:17.658Z,34.61
2017-12-26T09:30:45.548Z,31.68
2017-12-26T09:33:14.005Z,32.23
2017-12-26T09:35:41.935Z,29.69
2017-12-26T09:38:11.211Z,29.70
2017-12-26T09:40:39.579Z,30.99
2017-12-26T09:43:08.112Z,30.71
2017-12-26T09:45:36.742Z,30.11
2017-12-26T09:48:04.583Z,30.87
2017-12-26T09:50:32.159Z,29.22
2017-12-26T09:52:59.746Z,31.53
2017-12-26T09:55:27.375Z,32.54
2017-12-26T09:57:54.950Z,29.98
2017-12-26T10:00:22.529Z,29.29
2017-12-26T10:02:50.127Z,27.60
2017-12-26T10:05:17.706Z,27.10
2017-12-26T10:07:45.271Z,28.54
2017-12-26T10:10:12.880Z,28.80
2017-12-26T10:12:40.443Z,29.28
2017-12-26T10:15:08.009Z,27.62
2017-12-26T10:17:35.621Z,26.73
2017-12-26T10:20:03.176Z,25.05
2017-12-26T10:22:30.740Z,25.08
2017-12-26T10:24:58.352Z,25.80
2017-12-26T10:27:25.912Z,23.66
2017-12-26T10:29:53.494Z,24.53
2017-12-26T10:32:21.108Z,25.42
2017-12-26T10:34:48.667Z,22.77
2017-12-26T10:37:16.240Z,22.77
2017-12-26T10:39:43.842Z,21.26
2017-12-26T10:42:11.414Z,19.84
2017-12-26T10:44:38.993Z,20.43
2017-12-26T10:47:06.610Z,19.55
2017-12-26T10:49:34.185Z,19.98
2017-12-26T10:52:01.762Z,19.52
2017-12-26T10:54:29.351Z,21.21
2017-12-26T10:56:56.913Z,22.09
2017-12-26T10:59:24.463Z,19.84
2017-12-26T11:01:52.068Z,18.82
2017-12-26T11:04:19.633Z,18.57
2017-12-26T11:06:47.199Z,18.97
2017-12-26T11:09:14.809Z,19.69
2017-12-26T11:11:42.389Z,21.24
2017-12-26T11:14:10.020Z,22.50
2017-12-26T11:16:37.616Z,22.44
2017-12-26T11:19:05.174Z,21.30
2017-12-26T11:21:32.734Z,21.87
2017-12-26T11:24:00.328Z,20.81
2017-12-26T11:26:27.900Z,21.45
2017-12-26T11:28:55.462Z,21.28
2017-12-26T11:31:23.250Z,20.37
2017-12-26T11:33:50.836Z,20.03
2017-12-26T11:36:18.400Z,17.89
2017-12-26T11:38:45.992Z,18.97
2017-12-26T11:41:13.544Z,20.27
2017-12-26T11:43:41.119Z,21.35
2017-12-26T11:46:08.743Z,20.57
2017-12-26T11:48:36.305Z,19.78
2017-12-26T11:51:03.882Z,20.09
2017-12-26T11:53:31.506Z,19.94
2017-12-26T11:55:59.078Z,20.52
2017-12-26T11:58:26.636Z,21.26
2017-12-26T12:00:54.252Z,19.18
2017-12-26T12:03:21.795Z,17.96
2017-12-26T12:05:49.386Z,20.02
2017-12-26T12:08:16.971Z,19.85
2017-12-26T12:10:44.531Z,19.21
2017-12-26T12:13:12.098Z,17.42
2017-12-26T12:15:39.702Z,18.13
2017-12-26T12:18:07.295Z,17.49
2017-12-26T12:20:34.867Z,17.67
2017-12-26T12:23:02.450Z,20.10
2017-12-26T12:25:30.041Z,18.97
2017-12-26T12:27:57.665Z,20.77
2017-12-26T12:30:25.267Z,17.82
2017-12-26T12:32:52.839Z,17.58
2017-12-26T12:35:20.558Z,18.50
2017-12-26T12:37:48.164Z,19.73
2017-12-26T12:40:15.743Z,20.48
2017-12-26T12:42:43.313Z,18.86
2017-12-26T12:45:10.915Z,17.79
2017-12-26T12:47:38.494Z,18.26
2017-12-26T12:50:06.060Z,17.89
2017-12-26T12:52:33.661Z,18.27
2017-12-26T12:55:01.233Z,19.83
2017-12-26T12:57:28.802Z,19.74
2017-12-26T12:59:56.377Z,18.22
2017-12-26T13:02:23.942Z,18.12
2017-12-26T13:04:51.514Z,18.48
2017-12-26T13:07:19.119Z,18.08
2017-12-26T13:09:46.674Z,18.48
2017-12-26T13:12:14.277Z,18.03
2017-12-26T13:14:41.875Z,18.55
2017-12-26T13:17:09.437Z,18.54
2017-12-26T13:19:37.004Z,18.61
2017-12-26T13:22:04.587Z,19.24
2017-12-26T13:24:32.231Z,20.19
2017-12-26T13:26:59.783Z,20.05
2017-12-26T13:29:27.392Z,20.21
2017-12-26T13:31:54.940Z,20.28
2017-12-26T13:34:22.521Z,20.08
2017-12-26T13:36:50.163Z,20.03
2017-12-26T13:39:17.698Z,20.62
2017-12-26T13:41:45.257Z,20.95
2017-12-26T13:44:12.862Z,21.22
2017-12-26T13:46:40.419Z,22.58
2017-12-26T13:49:07.996Z,21.41
2017-12-26T13:51:35.618Z,21.80
2017-12-26T13:54:03.198Z,23.15
2017-12-26T13:56:30.777Z,25.01
2017-12-26T13:58:58.379Z,24.84
2017-12-26T14:01:25.949Z,24.37
2017-12-26T14:03:53.503Z,25.73
2017-12-26T14:06:21.105Z,27.65
2017-12-26T14:08:48.680Z,28.48
2017-12-26T14:11:16.289Z,30.85
2017-12-26T14:13:44.018Z,32.87
2017-12-26T14:16:11.585Z,34.20
2017-12-26T14:18:39.142Z,36.47
2017-12-26T14:21:06.739Z,38.89
2017-12-26T14:23:34.284Z,39.79
2017-12-26T14:26:01.858Z,40.61
2017-12-26T14:28:29.505Z,43.40
2017-12-26T14:30:57.089Z,44.13
2017-12-26T14:33:24.693Z,46.54
2017-12-26T14:35:52.291Z,46.81
2017-12-26T14:38:19.870Z,49.82
2017-12-26T14:40:47.512Z,50.84
2017-12-26T14:43:15.111Z,51.80
2017-12-26T14:45:42.685Z,53.26
2017-12-26T14:48:10.270Z,54.20
2017-12-26T14:50:37.874Z,54.70
2017-12-26T14:53:05.824Z,55.74
2017-12-26T14:55:33.480Z,56.38
2017-12-26T14:58:01.072Z,57.76
2017-12-26T15:00:28.657Z,57.79
2017-12-26T15:02:56.236Z,58.80
2017-12-26T15:05:23.828Z,60.03
2017-12-26T15:07:51.404Z,60.41
2017-12-26T15:10:18.970Z,60.99
2017-12-26T15:12:46.572Z,61.68
2017-12-26T15:15:14.127Z,62.09
2017-12-26T15:17:41.721Z,62.98
2017-12-26T15:20:09.343Z,63.38
2017-12-26T15:22:36.939Z,64.34
2017-12-26T15:25:04.545Z,64.70
2017-12-26T15:27:32.175Z,65.87
2017-12-26T15:29:59.738Z,66.10
2017-12-26T15:32:27.313Z,67.36
2017-12-26T15:34:54.922Z,67.71
2017-12-26T15:37:22.491Z,68.12
2017-12-26T15:39:50.044Z,68.41
2017-12-26T15:42:17.638Z,68.41
2017-12-26T15:44:45.213Z,68.63
2017-12-26T15:47:12.767Z,69.63
2017-12-26T15:49:40.369Z,70.42
2017-12-26T15:52:07.917Z,71.48
2017-12-26T15:54:35.531Z,71.09
2017-12-26T15:57:03.149Z,71.71
2017-12-26T15:59:30.742Z,72.84
2017-12-26T16:01:58.281Z,71.79
2017-12-26T16:04:25.887Z,72.57
2017-12-26T16:06:53.478Z,72.18
2017-12-26T16:09:21.143Z,72.62
2017-12-26T16:11:48.756Z,73.49
2017-12-26T16:14:16.329Z,73.90
2017-12-26T16:16:43.885Z,74.32
2017-12-26T16:19:11.480Z,75.03
2017-12-26T16:21:39.042Z,75.13
2017-12-26T16:24:06.676Z,74.46
2017-12-26T16:26:34.289Z,75.09
2017-12-26T16:29:01.856Z,75.23
2017-12-26T16:31:29.415Z,75.64
2017-12-26T16:33:57.012Z,76.32
2017-12-26T16:36:24.565Z,76.46
2017-12-26T16:38:52.129Z,76.99
2017-12-26T16:41:19.753Z,77.05
2017-12-26T16:43:47.333Z,77.07
2017-12-26T16:46:14.910Z,77.37
2017-12-26T16:48:42.522Z,77.72
2017-12-26T16:51:10.079Z,78.48
2017-12-26T16:53:37.644Z,79.32
2017-12-26T16:56:05.246Z,79.19
2017-12-26T16:58:32.808Z,79.75
2017-12-26T17:01:00.374Z,79.71
2017-12-26T17:03:28.149Z,79.72
2017-12-26T17:05:55.728Z,80.37
2017-12-26T17:08:23.305Z,80.66
2017-12-26T17:10:51.011Z,79.65
2017-12-26T17:13:18.648Z,80.61
2017-12-26T17:15:46.208Z,80.92
2017-12-26T17:18:13.829Z,80.53
2017-12-26T17:20:41.404Z,80.72
2017-12-26T17:23:08.981Z,81.70
2017-12-26T17:25:36.637Z,82.05
2017-12-26T17:28:04.237Z,82.47
2017-12-26T17:30:31.807Z,83.31
2017-12-26T17:32:59.401Z,90.30
2017-12-26T17:35:26.951Z,91.39
2017-12-26T17:37:54.518Z,85.51
2017-12-26T17:40:22.094Z,84.83
2017-12-26T17:42:49.662Z,85.25
2017-12-26T17:45:17.473Z,84.97
2017-12-26T17:47:45.134Z,79.73
2017-12-26T17:50:12.778Z,86.31
2017-12-26T17:52:40.342Z,90.08
2017-12-26T17:55:07.955Z,88.32
2017-12-26T17:57:35.507Z,83.70
2017-12-26T18:00:03.115Z,83.66
2017-12-26T18:02:30.721Z,80.23
2017-12-26T18:04:58.285Z,80.63
2017-12-26T18:07:25.868Z,83.02
2017-12-26T18:09:53.578Z,82.00
2017-12-26T18:12:21.152Z,82.23
2017-12-26T18:14:48.849Z,84.44
2017-12-26T18:17:16.436Z,84.41
2017-12-26T18:19:44.038Z,83.83
2017-12-26T18:22:11.630Z,83.21
2017-12-26T18:24:39.237Z,82.94
2017-12-26T18:27:06.826Z,82.28
2017-12-26T18:29:34.415Z,82.93
2017-12-26T18:32:02.216Z,83.19
2017-12-26T18:34:29.765Z,84.09
2017-12-26T18:36:57.340Z,82.62
2017-12-26T18:39:24.957Z,81.24
2017-12-26T18:41:52.544Z,83.74
2017-12-26T18:44:20.114Z,84.06
2017-12-26T18:46:47.730Z,85.69
2017-12-26T18:49:15.312Z,84.61
2017-12-26T18:51:42.877Z,81.20
2017-12-26T18:54:10.484Z,82.47
2017-12-26T18:56:38.056Z,84.14
2017-12-26T18:59:05.619Z,84.02
2017-12-26T19:01:33.216Z,84.45
2017-12-26T19:04:00.772Z,84.69
2017-12-26T19:06:28.337Z,83.07
2017-12-26T19:08:55.941Z,83.83
2017-12-26T19:11:23.496Z,87.14
2017-12-26T19:13:51.135Z,86.07
2017-12-26T19:16:18.754Z,84.56
2017-12-26T19:18:46.351Z,86.45
2017-12-26T19:21:13.905Z,83.39
2017-12-26T19:23:41.542Z,84.06
2017-12-26T19:26:09.115Z,84.28
2017-12-26T19:28:36.677Z,86.32
2017-12-26T19:31:04.284Z,84.46
2017-12-26T19:33:31.834Z,85.24
2017-12-26T19:35:59.401Z,86.36
2017-12-26T19:38:26.993Z,87.06
2017-12-26T19:40:54.560Z,84.64
2017-12-26T19:43:22.130Z,84.94
2017-12-26T19:45:49.744Z,87.19
2017-12-26T19:48:17.312Z,87.88
2017-12-26T19:50:45.012Z,88.37
2017-12-26T19:53:12.787Z,87.74
2017-12-26T19:55:40.338Z,88.45
2017-12-26T19:58:07.910Z,88.39
2017-12-26T20:00:35.514Z,87.39
2017-12-26T20:03:03.069Z,87.72
2017-12-26T20:05:30.651Z,86.06
2017-12-26T20:07:58.318Z,87.77
2017-12-26T20:10:25.914Z,86.73
2017-12-26T20:12:53.478Z,87.27
2017-12-26T20:15:21.044Z,86.51
2017-12-26T20:17:48.653Z,87.59
2017-12-26T20:20:16.223Z,89.13
2017-12-26T20:22:43.787Z,89.87
2017-12-26T20:25:11.406Z,89.61
2017-12-26T20:27:39.018Z,88.82
2017-12-26T20:30:06.593Z,87.56
2017-12-26T20:32:34.239Z,88.17
2017-12-26T20:35:01.783Z,87.94
2017-12-26T20:37:29.332Z,87.29
2017-12-26T20:39:56.919Z,89.12
2017-12-26T20:42:24.484Z,88.93
2017-12-26T20:44:52.058Z,90.24
2017-12-26T20:47:19.665Z,88.43
2017-12-26T20:49:47.214Z,89.13
2017-12-26T20:52:14.770Z,87.90
2017-12-26T20:54:42.366Z,89.72
2017-12-26T20:57:09.915Z,88.75
2017-12-26T20:59:37.471Z,88.90
2017-12-26T21:02:05.077Z,88.08
2017-12-26T21:04:32.637Z,88.16
2017-12-26T21:07:00.214Z,87.42
2017-12-26T21:09:28.265Z,89.33
2017-12-26T21:11:55.834Z,87.95
2017-12-26T21:14:23.422Z,88.38
2017-12-26T21:16:56.629Z,87.93
2017-12-26T21:19:24.292Z,89.02
2017-12-26T21:21:51.879Z,87.37
2017-12-26T21:24:19.648Z,88.27
2017-12-26T21:26:47.213Z,88.91
2017-12-26T21:29:14.762Z,87.66
2017-12-26T21:31:42.369Z,87.00
2017-12-26T21:34:09.946Z,87.00
2017-12-26T21:36:37.531Z,87.12
2017-12-26T21:39:05.179Z,88.25
2017-12-26T21:41:32.764Z,88.62
2017-12-26T21:44:00.383Z,87.59
2017-12-26T21:46:28.025Z,86.98
2017-12-26T21:48:55.584Z,89.00
2017-12-26T21:51:23.161Z,89.40
2017-12-26T21:53:50.813Z,89.23
2017-12-26T21:56:18.395Z,88.97
2017-12-26T21:58:45.967Z,89.16
2017-12-26T22:01:13.566Z,89.48
2017-12-26T22:03:42.562Z,90.04
2017-12-26T22:06:12.426Z,91.18
2017-12-26T22:08:40.833Z,92.00
2017-12-26T22:11:12.639Z,92.79
2017-12-26T22:13:43.485Z,93.00
2017-12-26T22:16:14.985Z,92.73
2017-12-26T22:18:42.887Z,92.63
2017-12-26T22:21:10.469Z,92.37
2017-12-26T22:23:38.061Z,92.42
2017-12-26T22:26:05.655Z,92.75
2017-12-26T22:28:33.257Z,92.93
2017-12-26T22:31:00.866Z,92.51
2017-12-26T22:33:29.173Z,92.12
2017-12-26T22:35:56.740Z,92.18
2017-12-26T22:38:24.293Z,91.86
2017-12-26T22:40:51.876Z,91.83
2017-12-26T22:43:19.437Z,91.53
2017-12-26T22:45:47.014Z,92.04
2017-12-26T22:48:14.598Z,92.22
2017-12-26T22:50:42.160Z,92.00
2017-12-26T22:53:09.735Z,92.44
2017-12-26T22:55:37.396Z,92.87
2017-12-26T22:58:04.973Z,92.64
2017-12-26T23:00:32.531Z,92.49
2017-12-26T23:03:00.133Z,92.67
2017-12-26T23:05:28.975Z,92.80
2017-12-26T23:07:56.641Z,92.64
2017-12-26T23:10:28.164Z,92.51
2017-12-26T23:12:59.099Z,92.58
2017-12-26T23:15:35.063Z,93.05
2017-12-26T23:18:11.301Z,92.88
2017-12-26T23:20:47.268Z,93.31
2017-12-26T23:23:22.954Z,93.28
2017-12-26T23:25:56.248Z,93.42
2017-12-26T23:28:29.470Z,93.42
2017-12-26T23:31:02.550Z,92.99
2017-12-26T23:33:35.787Z,93.36
2017-12-26T23:36:09.075Z,93.64
2017-12-26T23:38:42.088Z,93.47
2017-12-26T23:41:15.319Z,93.41
2017-12-26T23:43:48.425Z,93.25
2017-12-26T23:46:21.560Z,93.19
2017-12-26T23:48:54.707Z,93.33
2017-12-26T23:51:27.797Z,93.16
2017-12-26T23:54:00.768Z,92.96
2017-12-26T23:56:34.015Z,92.79
2017-12-26T23:59:07.204Z,93.01
